Orel 5 — EMFH — position and weather

sailwx.info

Track history (hours):
 
Tides and Currents Weather Stations Pressure Air Temp Water Temp Dewpoint Dewpoint Depression Visibility Wind Speed Wind Dir Waves Ship Positions

Orel 5

Last reported at 2014-Oct-26 04:34 UTC. Time now 2014-Oct-26 06:00 UTC.
Position N 37°54' E 023°33'.

Length 108 m; draft 3.4 m.

Type: Cargo ship. MMSI: 272059000.

Date/timePositionNaut miles runAvg speedWind from/ knotsBaromVisibWave heightAir tempDewpointWater temp
2014-Oct-26 04:34N 37°54' E 023°33'0 0.1
2014-Oct-26 03:32N 37°54' E 023°33'0 0.0
2014-Oct-26 02:32N 37°54' E 023°33'0 0.0
2014-Oct-26 01:32N 37°54' E 023°33'0 0.0
2014-Oct-26 00:32N 37°54' E 023°33'0 0.0
2014-Oct-25 23:32N 37°54' E 023°33'0 0.0
2014-Oct-25 22:32N 37°54' E 023°33'0 0.0
2014-Oct-25 21:32N 37°54' E 023°33'0 0.0
2014-Oct-25 20:32N 37°54' E 023°33'0 0.0
2014-Oct-25 19:33N 37°54' E 023°33'2 1.6
2014-Oct-25 18:33N 37°53' E 023°34'5 4.9
2014-Oct-25 17:33N 37°50' E 023°39'7 7.1
2014-Oct-25 16:33N 37°44' E 023°44'7 6.8
2014-Oct-25 15:33N 37°39' E 023°49'14 7.0
2014-Oct-25 13:31N 37°38' E 024°07'22 7.3
2014-Oct-25 10:32N 37°52' E 024°28'  
2014-Oct-21 21:18N 40°32' E 026°60'26 8.3
2014-Oct-21 18:09N 40°44' E 027°30'7 8.5
2014-Oct-21 17:18N 40°47' E 027°39'16 8.8
2014-Oct-21 15:27N 40°49' E 027°60'8 8.7
2014-Oct-21 14:33N 40°51' E 028°10'9 8.5
2014-Oct-21 13:33N 40°52' E 028°21'12 8.4
2014-Oct-21 12:04N 40°54' E 028°38'13 8.0
2014-Oct-21 10:24N 40°57' E 028°55'2 2.5
2014-Oct-21 09:32N 40°59' E 028°56'0 0.0
2014-Oct-21 07:20N 40°59' E 028°56'0 0.1
2014-Oct-21 06:33N 40°59' E 028°56'11 5.6
2014-Oct-21 04:30N 41°08' E 029°04'  
2014-Oct-18 03:33N 46°35' E 031°42'8 7.7
2014-Oct-18 02:33N 46°35' E 031°53'7 7.4
2014-Oct-18 01:33N 46°32' E 032°04'8 7.7
2014-Oct-18 00:33N 46°33' E 032°15'138 3.4
2014-Oct-16 08:23N 47°43' E 035°09'5 6.3
2014-Oct-16 07:33N 47°48' E 035°10'3 3.3
2014-Oct-16 06:33N 47°50' E 035°06'2 1.6
2014-Oct-16 05:33N 47°52' E 035°05'  
Track history (hours):
 
Tides and Currents Weather Stations Pressure Air Temp Water Temp Dewpoint Dewpoint Depression Visibility Wind Speed Wind Dir Waves Ship Positions

Orel 5

Last reported at 2014-Oct-26 04:34 UTC. Time now 2014-Oct-26 06:00 UTC.
Position N 37°54' E 023°33'.

Length 108 m; draft 3.4 m.

Type: Cargo ship. MMSI: 272059000.

Date/timePositionNaut miles runAvg speedWind from/ knotsBaromVisibWave heightAir tempDewpointWater temp
2014-Oct-26 04:34N 37°54' E 023°33'0 0.1
2014-Oct-26 03:32N 37°54' E 023°33'0 0.0
2014-Oct-26 02:32N 37°54' E 023°33'0 0.0
2014-Oct-26 01:32N 37°54' E 023°33'0 0.0
2014-Oct-26 00:32N 37°54' E 023°33'0 0.0
2014-Oct-25 23:32N 37°54' E 023°33'0 0.0
2014-Oct-25 22:32N 37°54' E 023°33'0 0.0
2014-Oct-25 21:32N 37°54' E 023°33'0 0.0
2014-Oct-25 20:32N 37°54' E 023°33'0 0.0
2014-Oct-25 19:33N 37°54' E 023°33'2 1.6
2014-Oct-25 18:33N 37°53' E 023°34'5 4.9
2014-Oct-25 17:33N 37°50' E 023°39'7 7.1
2014-Oct-25 16:33N 37°44' E 023°44'7 6.8
2014-Oct-25 15:33N 37°39' E 023°49'14 7.0
2014-Oct-25 13:31N 37°38' E 024°07'22 7.3
2014-Oct-25 10:32N 37°52' E 024°28'  
2014-Oct-21 21:18N 40°32' E 026°60'26 8.3
2014-Oct-21 18:09N 40°44' E 027°30'7 8.5
2014-Oct-21 17:18N 40°47' E 027°39'16 8.8
2014-Oct-21 15:27N 40°49' E 027°60'8 8.7
2014-Oct-21 14:33N 40°51' E 028°10'9 8.5
2014-Oct-21 13:33N 40°52' E 028°21'12 8.4
2014-Oct-21 12:04N 40°54' E 028°38'13 8.0
2014-Oct-21 10:24N 40°57' E 028°55'2 2.5
2014-Oct-21 09:32N 40°59' E 028°56'0 0.0
2014-Oct-21 07:20N 40°59' E 028°56'0 0.1
2014-Oct-21 06:33N 40°59' E 028°56'11 5.6
2014-Oct-21 04:30N 41°08' E 029°04'  
2014-Oct-18 03:33N 46°35' E 031°42'8 7.7
2014-Oct-18 02:33N 46°35' E 031°53'7 7.4
2014-Oct-18 01:33N 46°32' E 032°04'8 7.7
2014-Oct-18 00:33N 46°33' E 032°15'138 3.4
2014-Oct-16 08:23N 47°43' E 035°09'5 6.3
2014-Oct-16 07:33N 47°48' E 035°10'3 3.3
2014-Oct-16 06:33N 47°50' E 035°06'2 1.6
2014-Oct-16 05:33N 47°52' E 035°05'  

Dump ship's entire track history